Muir, Pennsylvania
Current Conditions -  °F | °C
As of 11:48 AM on Wednesday 22 Oct 2014 (Local Time) from KMUI Reporting Station
Light Rain Light Rain  
Wind Chill: 54°   Ceiling: 2100
Heat Index: 54°   Visibility: 9mi
Dew Point: 54°   Wind: 8mph
Humidity: 100%   Direction: 20°NNE
Pressure: 29.98"   Gusts: 18mph
Location:  40.59°N, 76.52°W
Report Text: KMUI 221548Z AUTO 02007G16KT 9SM -RA BKN021 OVC026 12/12 A2998 RMK AO2 CIG 019V026 $
Loading
Personal Weather Stations






























Interactive Weather Map
Tropical Storm Tracking
New forecast layout! Learn more

10-Day Weather Forecast

Advertisements
Track Severe Weather on mobile